createdAt,value
2018-01-29T00:00:29.217Z,44.8
2018-01-29T00:01:31.110Z,45.2
2018-01-29T00:02:32.708Z,45.1
2018-01-29T00:03:34.049Z,45.1
2018-01-29T00:04:35.393Z,45.2
2018-01-29T00:05:37.290Z,45.1
2018-01-29T00:06:38.354Z,45.1
2018-01-29T00:07:39.676Z,45.1
2018-01-29T00:08:40.997Z,44.9
2018-01-29T00:09:42.593Z,45.1
2018-01-29T00:10:43.915Z,45.3
2018-01-29T00:11:45.811Z,44.9
2018-01-29T00:12:47.131Z,44.8
2018-01-29T00:13:48.731Z,45.1
2018-01-29T00:14:50.051Z,44.9
2018-01-29T00:15:51.377Z,44.9
2018-01-29T00:16:53.277Z,45.1
2018-01-29T00:17:54.616Z,44.9
2018-01-29T00:18:56.237Z,45
2018-01-29T00:19:57.581Z,45.1
2018-01-29T00:20:58.926Z,44.9
2018-01-29T00:22:00.820Z,45.1
2018-01-29T00:23:02.718Z,44.8
2018-01-29T00:24:04.612Z,44.9
2018-01-29T00:25:05.934Z,45
2018-01-29T00:26:07.249Z,45
2018-01-29T00:27:08.572Z,45.1
2018-01-29T00:28:10.528Z,45.1
2018-01-29T00:29:12.147Z,45
2018-01-29T00:30:14.046Z,45.1
2018-01-29T00:31:15.645Z,45
2018-01-29T00:32:16.686Z,45
2018-01-29T00:33:18.028Z,45
2018-01-29T00:34:19.624Z,45.1
2018-01-29T00:35:20.971Z,45.1
2018-01-29T00:36:22.869Z,45.1
2018-01-29T00:37:24.243Z,45.1
2018-01-29T00:38:25.864Z,45
2018-01-29T00:39:27.211Z,44.9
2018-01-29T00:40:28.548Z,45.1
2018-01-29T00:41:30.162Z,44.9
2018-01-29T00:42:31.506Z,44.9
2018-01-29T00:43:33.129Z,45
2018-01-29T00:44:34.745Z,45
2018-01-29T00:45:36.075Z,45
2018-01-29T00:46:37.673Z,45
2018-01-29T00:47:38.743Z,44.9
2018-01-29T00:48:40.058Z,45
2018-01-29T00:49:41.101Z,45
2018-01-29T00:50:42.421Z,44.9
2018-01-29T00:51:44.042Z,45
2018-01-29T00:52:45.658Z,45
2018-01-29T00:53:46.703Z,45
2018-01-29T00:54:48.021Z,44.9
2018-01-29T00:55:49.365Z,44.9
2018-01-29T00:56:50.987Z,44.9
2018-01-29T00:57:52.031Z,44.9
2018-01-29T00:58:53.633Z,44.9
2018-01-29T00:59:54.952Z,45
2018-01-29T01:00:56.575Z,44.9
2018-01-29T01:01:58.474Z,45
2018-01-29T01:03:00.097Z,44.8
2018-01-29T01:04:01.992Z,44.8
2018-01-29T01:05:03.035Z,44.9
2018-01-29T01:06:04.383Z,44.9
2018-01-29T01:07:05.696Z,45
2018-01-29T01:08:07.318Z,44.9
2018-01-29T01:09:08.915Z,45
2018-01-29T01:10:10.535Z,44.9
2018-01-29T01:11:12.432Z,45
2018-01-29T01:12:13.756Z,45
2018-01-29T01:13:15.652Z,45
2018-01-29T01:14:17.249Z,45
2018-01-29T01:15:19.179Z,45
2018-01-29T01:16:20.808Z,45
2018-01-29T01:17:22.697Z,44.9
2018-01-29T01:18:24.591Z,45
2018-01-29T01:19:26.222Z,44.8
2018-01-29T01:20:27.852Z,45
2018-01-29T01:21:29.437Z,45
2018-01-29T01:22:31.055Z,44.9
2018-01-29T01:23:32.376Z,45.1
2018-01-29T01:24:33.996Z,45
2018-01-29T01:25:35.948Z,45
2018-01-29T01:26:37.291Z,45.1
2018-01-29T01:27:39.190Z,45
2018-01-29T01:28:40.808Z,45.2
2018-01-29T01:29:42.426Z,45.3
2018-01-29T01:30:43.748Z,44.9
2018-01-29T01:31:45.103Z,45.2
2018-01-29T01:32:47.000Z,44.8
2018-01-29T01:33:48.597Z,45.1
2018-01-29T01:34:50.492Z,45.1
2018-01-29T01:35:52.387Z,45.1
2018-01-29T01:36:54.285Z,45.1
2018-01-29T01:37:55.903Z,45.1
2018-01-29T01:38:56.946Z,44.8
2018-01-29T01:39:57.983Z,45.1
2018-01-29T01:40:59.324Z,45.1
2018-01-29T01:42:00.387Z,45.1
2018-01-29T01:43:01.431Z,45.1
2018-01-29T01:44:02.771Z,45.1
2018-01-29T01:45:04.670Z,45
2018-01-29T01:46:06.287Z,45.1
2018-01-29T01:47:07.904Z,45.1
2018-01-29T01:48:09.532Z,45.1
2018-01-29T01:49:11.428Z,45.1
2018-01-29T01:50:13.025Z,45.1
2018-01-29T01:51:14.922Z,45.1
2018-01-29T01:52:16.852Z,45.1
2018-01-29T01:53:18.451Z,45.1
2018-01-29T01:54:19.792Z,45.1
2018-01-29T01:55:21.691Z,45.1
2018-01-29T01:56:23.041Z,45.1
2018-01-29T01:57:24.357Z,45.1
2018-01-29T01:58:25.696Z,45.2
2018-01-29T01:59:27.320Z,45.1
2018-01-29T02:00:28.944Z,45
2018-01-29T02:01:30.575Z,45.1
2018-01-29T02:02:32.455Z,45.1
2018-01-29T02:03:34.073Z,45.1
2018-01-29T02:04:35.391Z,45.1
2018-01-29T02:05:36.436Z,45.1
2018-01-29T02:06:38.032Z,45.1
2018-01-29T02:07:39.651Z,45.1
2018-01-29T02:08:41.548Z,45
2018-01-29T02:09:43.165Z,45
2018-01-29T02:10:44.784Z,45.1
2018-01-29T02:11:46.122Z,45
2018-01-29T02:12:47.742Z,45.1
2018-01-29T02:13:49.405Z,45.1
2018-01-29T02:14:51.001Z,45.1
2018-01-29T02:15:52.597Z,45.1
2018-01-29T02:16:54.216Z,45.1
2018-01-29T02:17:55.556Z,45.1
2018-01-29T02:18:56.873Z,45.1
2018-01-29T02:19:58.196Z,45.1
2018-01-29T02:20:59.817Z,45.1
2018-01-29T02:22:01.722Z,45.1
2018-01-29T02:23:03.617Z,45.1
2018-01-29T02:24:04.959Z,45.1
2018-01-29T02:25:06.001Z,45.1
2018-01-29T02:26:07.621Z,45.1
2018-01-29T02:27:09.517Z,45.1
2018-01-29T02:28:10.585Z,45.1
2018-01-29T02:29:12.482Z,45.1
2018-01-29T02:30:13.803Z,45
2018-01-29T02:31:15.419Z,45.1
2018-01-29T02:32:17.357Z,45.1
2018-01-29T02:33:18.697Z,45.1
2018-01-29T02:34:20.317Z,45.1
2018-01-29T02:35:22.215Z,45.1
2018-01-29T02:36:23.557Z,45
2018-01-29T02:37:25.478Z,45.1
2018-01-29T02:38:27.425Z,45.2
2018-01-29T02:39:29.322Z,45.1
2018-01-29T02:40:30.939Z,45.1
2018-01-29T02:41:32.835Z,45
2018-01-29T02:42:34.175Z,45.1
2018-01-29T02:43:36.072Z,45.1
2018-01-29T02:44:37.689Z,45.1
2018-01-29T02:45:39.007Z,45.2
2018-01-29T02:46:40.606Z,45.1
2018-01-29T02:47:41.944Z,45.1
2018-01-29T02:48:43.564Z,45.1
2018-01-29T02:49:45.184Z,45
2018-01-29T02:50:47.083Z,45.1
2018-01-29T02:51:48.710Z,45.1
2018-01-29T02:52:50.604Z,45.2
2018-01-29T02:53:52.225Z,45.1
2018-01-29T02:54:53.841Z,45
2018-01-29T02:55:55.447Z,45
2018-01-29T02:56:57.045Z,45.1
2018-01-29T02:57:58.661Z,45.1
2018-01-29T02:59:00.556Z,45
2018-01-29T03:00:01.597Z,45.1
2018-01-29T03:01:03.249Z,45.2
2018-01-29T03:02:04.587Z,45.1
2018-01-29T03:03:06.206Z,45.1
2018-01-29T03:04:07.536Z,45.1
2018-01-29T03:05:09.159Z,45.1
2018-01-29T03:06:11.054Z,45.1
2018-01-29T03:07:12.394Z,45.1
2018-01-29T03:08:14.023Z,45.1
2018-01-29T03:09:15.618Z,45.1
2018-01-29T03:10:17.237Z,45.1
2018-01-29T03:11:18.857Z,45.1
2018-01-29T03:12:20.474Z,44.9
2018-01-29T03:13:22.369Z,45.1
2018-01-29T03:14:24.264Z,45.2
2018-01-29T03:15:25.583Z,45
2018-01-29T03:16:27.199Z,45.3
2018-01-29T03:17:28.539Z,44.9
2018-01-29T03:18:30.435Z,45.1
2018-01-29T03:19:32.036Z,45
2018-01-29T03:20:33.931Z,45.6
2018-01-29T03:21:35.547Z,44.9
2018-01-29T03:22:37.144Z,45
2018-01-29T03:23:39.039Z,44.9
2018-01-29T03:24:40.381Z,45
2018-01-29T03:25:41.734Z,44.9
2018-01-29T03:26:43.072Z,45
2018-01-29T03:27:44.413Z,44.8
2018-01-29T03:28:45.758Z,44.9
2018-01-29T03:29:46.794Z,45.3
2018-01-29T03:30:48.416Z,45
2018-01-29T03:31:50.323Z,45
2018-01-29T03:32:51.944Z,45
2018-01-29T03:33:53.562Z,44.9
2018-01-29T03:34:54.628Z,44.9
2018-01-29T03:35:56.526Z,45.2
2018-01-29T03:36:57.568Z,45.4
2018-01-29T03:37:59.464Z,44.8
2018-01-29T03:39:00.819Z,45
2018-01-29T03:40:02.429Z,45
2018-01-29T03:41:04.323Z,44.9
2018-01-29T03:42:06.223Z,45.2
2018-01-29T03:43:07.542Z,45
2018-01-29T03:44:09.445Z,45
2018-01-29T03:45:11.342Z,45.2
2018-01-29T03:46:13.242Z,45
2018-01-29T03:47:14.855Z,45
2018-01-29T03:48:16.452Z,45.1
2018-01-29T03:49:17.771Z,45
2018-01-29T03:50:19.391Z,45.1
2018-01-29T03:51:21.290Z,45
2018-01-29T03:52:22.608Z,45
2018-01-29T03:53:24.504Z,45.2
2018-01-29T03:54:26.401Z,44.9
2018-01-29T03:55:27.724Z,45
2018-01-29T03:56:29.344Z,44.9
2018-01-29T03:57:30.688Z,45.2
2018-01-29T03:58:32.284Z,45.2
2018-01-29T03:59:33.906Z,45
2018-01-29T04:00:35.803Z,45
2018-01-29T04:01:37.427Z,44.8
2018-01-29T04:02:39.047Z,45.2
2018-01-29T04:03:40.943Z,45
2018-01-29T04:05:17.674Z,45.1
2018-01-29T04:06:19.570Z,45.1
2018-01-29T04:07:21.465Z,45.3
2018-01-29T04:08:23.091Z,45.2
2018-01-29T04:09:24.412Z,45.1
2018-01-29T04:10:25.177Z,45.1
2018-01-29T04:11:26.827Z,45.6
2018-01-29T04:12:28.445Z,45.6
2018-01-29T04:13:30.041Z,45.5
2018-01-29T04:14:31.933Z,45.4
2018-01-29T04:15:33.550Z,45.3
2018-01-29T04:16:35.168Z,45.3
2018-01-29T04:17:36.507Z,45.1
2018-01-29T04:18:38.126Z,45.1
2018-01-29T04:19:39.448Z,45.6
2018-01-29T04:20:40.493Z,45.4
2018-01-29T04:21:41.810Z,45.4
2018-01-29T04:22:43.412Z,45.4
2018-01-29T04:23:45.058Z,45.6
2018-01-29T04:24:46.398Z,45.2
2018-01-29T04:25:47.742Z,45.2
2018-01-29T04:26:49.080Z,45.7
2018-01-29T04:27:50.699Z,45.4
2018-01-29T04:28:52.297Z,45.4
2018-01-29T04:29:53.616Z,45.5
2018-01-29T04:30:55.511Z,45.4
2018-01-29T04:31:57.132Z,45.3
2018-01-29T04:32:58.471Z,45.4
2018-01-29T04:34:00.091Z,45
2018-01-29T04:35:01.988Z,44.9
2018-01-29T04:36:03.909Z,45.6
2018-01-29T04:37:05.510Z,44.9
2018-01-29T04:38:06.597Z,45
2018-01-29T04:39:07.958Z,44.9
2018-01-29T04:40:09.297Z,45.6
2018-01-29T04:41:10.342Z,45.5
2018-01-29T04:42:11.960Z,45
2018-01-29T04:43:13.282Z,45
2018-01-29T04:44:14.898Z,44.9
2018-01-29T04:45:16.792Z,45.4
2018-01-29T04:46:18.689Z,45.4
2018-01-29T04:47:20.328Z,45.1
2018-01-29T04:48:21.368Z,45.1
2018-01-29T04:49:23.282Z,45.4
2018-01-29T04:50:25.207Z,45.1
2018-01-29T04:51:26.272Z,45.1
2018-01-29T04:52:28.168Z,45.1
2018-01-29T04:53:30.064Z,45
2018-01-29T04:54:31.382Z,45.2
2018-01-29T04:55:32.724Z,45
2018-01-29T04:56:34.344Z,45.4
2018-01-29T04:57:35.665Z,45.1
2018-01-29T04:58:37.006Z,45
2018-01-29T04:59:38.347Z,45
2018-01-29T05:00:39.969Z,45.2
2018-01-29T05:01:41.287Z,45.2
2018-01-29T05:02:43.181Z,45.2
2018-01-29T05:03:44.796Z,45.3
2018-01-29T05:04:46.422Z,45.3
2018-01-29T05:05:48.040Z,45.3
2018-01-29T05:06:49.933Z,45.2
2018-01-29T05:07:51.829Z,45
2018-01-29T05:08:53.170Z,45
2018-01-29T05:09:54.789Z,45.1
2018-01-29T05:10:56.682Z,45.1
2018-01-29T05:11:58.304Z,45
2018-01-29T05:13:00.199Z,45.2
2018-01-29T05:14:02.093Z,45.1
2018-01-29T05:15:03.988Z,45
2018-01-29T05:16:05.606Z,45.1
2018-01-29T05:17:07.226Z,45.1
2018-01-29T05:18:09.142Z,45.2
2018-01-29T05:19:10.759Z,45
2018-01-29T05:20:12.078Z,45.2
2018-01-29T05:21:13.404Z,45.2
2018-01-29T05:22:15.024Z,45.2
2018-01-29T05:23:16.341Z,45.3
2018-01-29T05:24:17.960Z,45.2
2018-01-29T05:25:19.865Z,45.1
2018-01-29T05:26:20.907Z,45.1
2018-01-29T05:27:22.802Z,45.1
2018-01-29T05:28:23.843Z,45.1
2018-01-29T05:29:25.738Z,45.1
2018-01-29T05:30:27.356Z,45.2
2018-01-29T05:31:28.672Z,45
2018-01-29T05:32:30.566Z,45.2
2018-01-29T05:33:32.461Z,45
2018-01-29T05:34:34.059Z,45.1
2018-01-29T05:35:35.397Z,45
2018-01-29T05:36:37.299Z,45
2018-01-29T05:37:38.612Z,45
2018-01-29T05:38:40.514Z,45.1
2018-01-29T05:39:42.129Z,45.2
2018-01-29T05:40:43.461Z,45
2018-01-29T05:41:45.347Z,45.2
2018-01-29T05:42:47.241Z,45.2
2018-01-29T05:43:49.142Z,45
2018-01-29T05:44:50.758Z,45
2018-01-29T05:45:52.376Z,45.2
2018-01-29T05:46:53.974Z,45.2
2018-01-29T05:47:55.315Z,45
2018-01-29T05:48:56.913Z,45.1
2018-01-29T05:49:57.956Z,45.2
2018-01-29T05:50:59.858Z,45.2
2018-01-29T05:52:01.748Z,45.1
2018-01-29T05:53:03.363Z,45.2
2018-01-29T05:54:04.681Z,45.3
2018-01-29T05:55:06.313Z,45.3
2018-01-29T05:56:07.909Z,45
2018-01-29T05:57:09.233Z,45.3
2018-01-29T05:58:10.850Z,45.2
2018-01-29T05:59:11.892Z,45.2
2018-01-29T06:00:13.486Z,45
2018-01-29T06:01:15.381Z,45
2018-01-29T06:02:16.720Z,45.2
2018-01-29T06:03:18.337Z,45.2
2018-01-29T06:04:19.655Z,45.1
2018-01-29T06:05:21.267Z,45.1
2018-01-29T06:06:22.584Z,45.2
2018-01-29T06:07:24.263Z,45.1
2018-01-29T06:08:25.605Z,45.2
2018-01-29T06:09:26.947Z,45.1
2018-01-29T06:10:28.565Z,45.2
2018-01-29T06:11:30.460Z,45.2
2018-01-29T06:12:32.079Z,45.1
2018-01-29T06:13:33.703Z,45.1
2018-01-29T06:14:35.592Z,45.1
2018-01-29T06:15:37.244Z,45.2
2018-01-29T06:16:38.562Z,45.1
2018-01-29T06:17:39.900Z,45.1
2018-01-29T06:18:41.796Z,45.1
2018-01-29T06:19:43.416Z,45
2018-01-29T06:20:45.012Z,45.1
2018-01-29T06:21:46.347Z,45.2
2018-01-29T06:22:47.666Z,45
2018-01-29T06:23:49.283Z,45.1
2018-01-29T06:24:50.602Z,45
2018-01-29T06:25:52.203Z,45.2
2018-01-29T06:26:54.102Z,45.1
2018-01-29T06:27:55.722Z,45.2
2018-01-29T06:28:57.621Z,45
2018-01-29T06:29:58.681Z,45.2
2018-01-29T06:31:00.577Z,45.1
2018-01-29T06:32:02.174Z,45.2
2018-01-29T06:33:03.773Z,45
2018-01-29T06:34:05.111Z,45
2018-01-29T06:35:06.736Z,45.3
2018-01-29T06:36:08.075Z,45.2
2018-01-29T06:37:09.397Z,45.1
2018-01-29T06:38:11.289Z,45.2
2018-01-29T06:39:12.912Z,45.2
2018-01-29T06:40:14.505Z,45.3
2018-01-29T06:41:15.848Z,45.1
2018-01-29T06:42:17.741Z,45.2
2018-01-29T06:43:19.350Z,45.1
2018-01-29T06:44:21.010Z,45.4
2018-01-29T06:45:22.905Z,45.2
2018-01-29T06:46:24.244Z,45.2
2018-01-29T06:47:25.876Z,45.4
2018-01-29T06:48:27.570Z,45.1
2018-01-29T06:49:28.942Z,45.1
2018-01-29T06:50:30.421Z,44.9
2018-01-29T06:51:31.464Z,45.4
2018-01-29T06:52:33.085Z,45.1
2018-01-29T06:53:34.995Z,45.4
2018-01-29T06:54:36.397Z,45.4
2018-01-29T06:55:37.745Z,45.2
2018-01-29T06:56:39.087Z,45.1
2018-01-29T06:57:40.708Z,45.5
2018-01-29T06:58:42.056Z,45.2
2018-01-29T06:59:43.379Z,45.5
2018-01-29T07:00:44.997Z,45.5
2018-01-29T07:01:46.390Z,45
2018-01-29T07:02:47.690Z,45.2
2018-01-29T07:03:49.019Z,45
2018-01-29T07:04:50.067Z,45.5
2018-01-29T07:05:51.685Z,45.6
2018-01-29T07:06:53.009Z,45.3
2018-01-29T07:07:54.629Z,45.6
2018-01-29T07:08:56.282Z,45.3
2018-01-29T07:09:57.613Z,45.4
2018-01-29T07:10:59.538Z,45.4
2018-01-29T07:12:01.437Z,45.4
2018-01-29T07:13:02.515Z,45.5
2018-01-29T07:14:03.285Z,45.4
2018-01-29T07:15:04.905Z,45.5
2018-01-29T07:16:06.528Z,45.4
2018-01-29T07:17:08.150Z,45.5
2018-01-29T07:18:09.775Z,45.4
2018-01-29T07:19:11.116Z,45.6
2018-01-29T07:20:12.738Z,45.4
2018-01-29T07:21:14.356Z,45.4
2018-01-29T07:22:15.700Z,45.4
2018-01-29T07:23:17.358Z,45.4
2018-01-29T07:24:18.963Z,45.5
2018-01-29T07:25:20.862Z,45.5
2018-01-29T07:26:22.762Z,45.5
2018-01-29T07:27:24.109Z,45.5
2018-01-29T07:28:26.008Z,45.4
2018-01-29T07:29:27.910Z,45.4
2018-01-29T07:30:29.808Z,45.5
2018-01-29T07:31:31.429Z,45.4
2018-01-29T07:32:33.329Z,45.4
2018-01-29T07:33:34.649Z,45.5
2018-01-29T07:34:36.644Z,45.4
2018-01-29T07:35:38.547Z,45.5
2018-01-29T07:36:40.167Z,45.5
2018-01-29T07:37:41.771Z,45.4
2018-01-29T07:38:43.667Z,45.5
2018-01-29T07:39:45.567Z,45.5
2018-01-29T07:40:47.187Z,45.3
2018-01-29T07:41:49.093Z,45.4
2018-01-29T07:42:50.994Z,45.3
2018-01-29T07:43:52.603Z,45.3
2018-01-29T07:44:53.950Z,45.5
2018-01-29T07:45:55.577Z,45.3
2018-01-29T07:46:56.902Z,45.4
2018-01-29T07:47:58.832Z,45.7
2018-01-29T07:49:00.459Z,45.3
2018-01-29T07:50:02.085Z,45.3
2018-01-29T07:51:03.716Z,45.7
2018-01-29T07:52:05.325Z,45.5
2018-01-29T07:53:06.932Z,45.8
2018-01-29T07:54:08.559Z,46
2018-01-29T07:55:10.188Z,45.8
2018-01-29T07:56:11.787Z,45.4
2018-01-29T07:57:13.692Z,45.5
2018-01-29T07:58:15.022Z,45.3
2018-01-29T07:59:16.648Z,45.9
2018-01-29T08:00:17.971Z,45.5
2018-01-29T08:01:19.577Z,45.8
2018-01-29T08:02:21.486Z,46
2018-01-29T08:03:23.385Z,45.9
2018-01-29T08:04:25.014Z,45.8
2018-01-29T08:05:26.643Z,46
2018-01-29T08:06:28.306Z,45.8
2018-01-29T08:07:29.649Z,45.7
2018-01-29T08:08:31.276Z,45.9
2018-01-29T08:09:32.883Z,46
2018-01-29T08:10:34.507Z,45.7
2018-01-29T08:11:35.556Z,46
2018-01-29T08:12:36.884Z,46.1
2018-01-29T08:13:38.240Z,45.9
2018-01-29T08:14:39.882Z,46.1
2018-01-29T08:15:40.954Z,45.9
2018-01-29T08:16:42.285Z,45.8
2018-01-29T08:17:44.182Z,46.1
2018-01-29T08:18:45.805Z,46.1
2018-01-29T08:19:47.712Z,46
2018-01-29T08:20:49.055Z,45.8
2018-01-29T08:21:50.404Z,46.1
2018-01-29T08:22:51.454Z,46
2018-01-29T08:23:53.078Z,45.8
2018-01-29T08:24:54.708Z,45.8
2018-01-29T08:25:55.754Z,45.9
2018-01-29T08:26:57.103Z,46.1
2018-01-29T08:27:58.757Z,46.1
2018-01-29T08:29:00.663Z,46.1
2018-01-29T08:30:02.291Z,45.9
2018-01-29T08:31:03.610Z,45.9
2018-01-29T08:32:05.240Z,45.8
2018-01-29T08:33:06.594Z,45.7
2018-01-29T08:34:08.222Z,46
2018-01-29T08:35:09.849Z,46
2018-01-29T08:36:11.200Z,45.9
2018-01-29T08:37:12.829Z,46
2018-01-29T08:38:14.455Z,46.1
2018-01-29T08:39:16.367Z,45.7
2018-01-29T08:40:17.694Z,46
2018-01-29T08:41:19.320Z,46.3
2018-01-29T08:42:20.927Z,45.8
2018-01-29T08:43:22.532Z,45.9
2018-01-29T08:44:24.434Z,46.3
2018-01-29T08:45:26.340Z,45.7
2018-01-29T08:46:27.948Z,45.8
2018-01-29T08:47:29.274Z,46.1
2018-01-29T08:48:30.879Z,45.9
2018-01-29T08:49:32.505Z,46
2018-01-29T08:50:34.177Z,46
2018-01-29T08:51:35.798Z,46
2018-01-29T08:52:37.428Z,45.9
2018-01-29T08:53:39.029Z,46
2018-01-29T08:54:40.358Z,46
2018-01-29T08:55:41.985Z,45.9
2018-01-29T08:56:43.333Z,45.9
2018-01-29T08:57:44.959Z,45.9
2018-01-29T08:58:46.584Z,45.9
2018-01-29T08:59:48.486Z,45.9
2018-01-29T09:00:50.112Z,46.1
2018-01-29T09:01:51.788Z,45.9
2018-01-29T09:02:52.809Z,46.1
2018-01-29T09:03:54.158Z,46.1
2018-01-29T09:04:55.787Z,45.9
2018-01-29T09:05:57.142Z,45.9
2018-01-29T09:06:58.774Z,46
2018-01-29T09:08:00.679Z,45.9
2018-01-29T09:09:02.581Z,46.1
2018-01-29T09:10:04.196Z,46
2018-01-29T09:11:06.102Z,45.9
2018-01-29T09:12:07.727Z,46
2018-01-29T09:13:09.078Z,45.9
2018-01-29T09:14:10.987Z,46
2018-01-29T09:15:12.892Z,46
2018-01-29T09:16:14.518Z,45.9
2018-01-29T09:17:16.144Z,45.9
2018-01-29T09:18:17.773Z,46
2018-01-29T09:19:19.399Z,45.9
2018-01-29T09:20:20.474Z,45.9
2018-01-29T09:21:22.108Z,46.4
2018-01-29T09:22:23.735Z,46
2018-01-29T09:23:25.852Z,46
2018-01-29T09:24:27.489Z,46.2
2018-01-29T09:25:29.115Z,46.4
2018-01-29T09:26:30.742Z,45.9
2018-01-29T09:27:32.644Z,45.9
2018-01-29T09:28:34.548Z,45.9
2018-01-29T09:29:36.467Z,46
2018-01-29T09:30:38.068Z,46
2018-01-29T09:31:39.394Z,46.1
2018-01-29T09:32:40.744Z,46.3
2018-01-29T09:33:42.070Z,46.1
2018-01-29T09:34:43.780Z,46.1
2018-01-29T09:35:45.125Z,46
2018-01-29T09:36:46.751Z,45.9
2018-01-29T09:37:48.376Z,46.3
2018-01-29T09:38:49.726Z,46.3
2018-01-29T09:39:51.074Z,46.3
2018-01-29T09:40:52.703Z,46.3
2018-01-29T09:41:54.610Z,46
2018-01-29T09:42:56.241Z,46.2
2018-01-29T09:43:58.147Z,45.9
2018-01-29T09:44:59.499Z,46
2018-01-29T09:46:01.125Z,46
2018-01-29T09:47:02.730Z,46
2018-01-29T09:48:04.630Z,46
2018-01-29T09:49:05.979Z,46
2018-01-29T09:50:07.315Z,45.9
2018-01-29T09:51:08.942Z,46.1
2018-01-29T09:52:10.570Z,46
2018-01-29T09:53:11.638Z,46.1
2018-01-29T09:54:13.272Z,45.9
2018-01-29T09:55:14.601Z,46.1
2018-01-29T09:56:16.223Z,45.9
2018-01-29T09:57:17.551Z,46.4
2018-01-29T09:58:19.458Z,45.9
2018-01-29T09:59:20.890Z,46
2018-01-29T10:00:22.794Z,46
2018-01-29T10:01:24.696Z,46
2018-01-29T10:02:26.599Z,46
2018-01-29T10:03:28.503Z,45.9
2018-01-29T10:04:29.553Z,46
2018-01-29T10:05:31.179Z,46.4
2018-01-29T10:06:33.101Z,46
2018-01-29T10:07:35.006Z,45.9
2018-01-29T10:08:36.604Z,46.4
2018-01-29T10:09:37.649Z,46
2018-01-29T10:10:39.275Z,46.2
2018-01-29T10:11:41.174Z,46.2
2018-01-29T10:12:42.794Z,45.7
2018-01-29T10:13:44.116Z,46.2
2018-01-29T10:14:45.187Z,45.9
2018-01-29T10:15:46.784Z,46
2018-01-29T10:16:48.105Z,46
2018-01-29T10:17:49.424Z,45.8
2018-01-29T10:18:51.046Z,45.8
2018-01-29T10:19:52.942Z,46
2018-01-29T10:20:54.841Z,46
2018-01-29T10:21:56.773Z,45.9
2018-01-29T10:22:58.391Z,46.4
2018-01-29T10:24:00.297Z,45.9
2018-01-29T10:25:01.912Z,45.9
2018-01-29T10:26:03.532Z,45.9
2018-01-29T10:27:05.429Z,46
2018-01-29T10:28:07.332Z,46
2018-01-29T10:29:08.952Z,46
2018-01-29T10:30:10.300Z,46
2018-01-29T10:31:11.637Z,46.1
2018-01-29T10:32:12.954Z,45.8
2018-01-29T10:33:14.857Z,46
2018-01-29T10:34:16.478Z,45.9
2018-01-29T10:35:18.099Z,46
2018-01-29T10:36:19.997Z,46
2018-01-29T10:37:21.354Z,45.9
2018-01-29T10:38:22.678Z,46
2018-01-29T10:39:24.300Z,45.9
2018-01-29T10:40:25.648Z,45.9
2018-01-29T10:41:27.548Z,45.9
2018-01-29T10:42:28.593Z,45.9
2018-01-29T10:43:29.945Z,46.1
2018-01-29T10:44:31.289Z,46
2018-01-29T10:45:32.895Z,46.2
2018-01-29T10:46:34.582Z,46.2
2018-01-29T10:47:35.927Z,46
2018-01-29T10:48:37.548Z,46.1
2018-01-29T10:49:38.917Z,46.2
2018-01-29T10:50:40.571Z,46.2
2018-01-29T10:51:42.226Z,46
2018-01-29T10:52:44.244Z,45.9
2018-01-29T10:53:46.015Z,45.9
2018-01-29T10:54:47.368Z,46.3
2018-01-29T10:55:49.270Z,46.3
2018-01-29T10:56:50.976Z,46
2018-01-29T10:57:52.881Z,46.1
2018-01-29T10:58:54.548Z,46.3
2018-01-29T10:59:56.220Z,46.2
2018-01-29T11:00:57.824Z,46.2
2018-01-29T11:01:59.164Z,46.3
2018-01-29T11:03:00.634Z,46.4
2018-01-29T11:04:01.958Z,46.4
2018-01-29T11:05:03.406Z,46.5
2018-01-29T11:06:05.038Z,46.2
2018-01-29T11:07:06.721Z,46.6
2018-01-29T11:08:08.331Z,46.5
2018-01-29T11:09:09.968Z,46.7
2018-01-29T11:10:11.110Z,46.7
2018-01-29T11:11:13.006Z,46.4
2018-01-29T11:12:14.924Z,46.6
2018-01-29T11:13:16.555Z,46.2
2018-01-29T11:14:17.881Z,46.4
2018-01-29T11:15:19.203Z,46.4
2018-01-29T11:16:21.118Z,46.6
2018-01-29T11:17:22.722Z,46.2
2018-01-29T11:18:24.067Z,46.4
2018-01-29T11:19:25.449Z,46.2
2018-01-29T11:20:27.071Z,46.5
2018-01-29T11:21:28.409Z,46.3
2018-01-29T11:22:30.009Z,46.5
2018-01-29T11:23:31.630Z,46.5
2018-01-29T11:24:33.257Z,46.5
2018-01-29T11:25:34.867Z,46.5
2018-01-29T11:26:36.483Z,46.5
2018-01-29T11:27:37.810Z,46.2
2018-01-29T11:28:39.155Z,46.5
2018-01-29T11:29:40.553Z,46.4
2018-01-29T11:30:42.154Z,46.2
2018-01-29T11:31:43.515Z,46.4
2018-01-29T11:32:44.829Z,46.4
2018-01-29T11:33:46.172Z,46.2
2018-01-29T11:34:47.802Z,46.3
2018-01-29T11:35:49.407Z,46.3
2018-01-29T11:36:50.735Z,46.7
2018-01-29T11:37:52.361Z,46.5
2018-01-29T11:38:54.266Z,46.5
2018-01-29T11:39:55.882Z,46.5
2018-01-29T11:40:57.786Z,46.5
2018-01-29T11:41:59.403Z,46.7
2018-01-29T11:43:00.750Z,46.4
2018-01-29T11:44:02.094Z,46.6
2018-01-29T11:45:03.216Z,46.5
2018-01-29T11:46:04.931Z,46.4
2018-01-29T11:47:06.553Z,46.4
2018-01-29T11:48:07.904Z,46.5
2018-01-29T11:49:09.227Z,46.4
2018-01-29T11:50:10.846Z,46.5
2018-01-29T11:51:12.469Z,46.3
2018-01-29T11:52:14.368Z,46.4
2018-01-29T11:53:15.989Z,46.6
2018-01-29T11:54:17.891Z,46.4
2018-01-29T11:55:18.977Z,46.4
2018-01-29T11:56:20.874Z,46.5
2018-01-29T11:57:22.497Z,46.5
2018-01-29T11:58:24.118Z,46.5
2018-01-29T11:59:25.742Z,46.4
2018-01-29T12:00:27.369Z,46.8
2018-01-29T12:01:28.965Z,46.4
2018-01-29T12:02:30.014Z,46.5
2018-01-29T12:03:31.361Z,46.3
2018-01-29T12:04:33.261Z,46.5
2018-01-29T12:05:34.306Z,46.4
2018-01-29T12:06:35.927Z,46.4
2018-01-29T12:07:37.268Z,46.2
2018-01-29T12:08:38.594Z,46.5
2018-01-29T12:09:40.216Z,46.4
2018-01-29T12:10:41.817Z,46.4
2018-01-29T12:11:43.441Z,46.4
2018-01-29T12:12:45.043Z,46.4
2018-01-29T12:13:46.941Z,46.4
2018-01-29T12:14:48.854Z,46.3
2018-01-29T12:15:49.893Z,46.2
2018-01-29T12:16:51.216Z,46.2
2018-01-29T12:17:53.116Z,46.5
2018-01-29T12:18:54.713Z,46.2
2018-01-29T12:19:56.331Z,46.7
2018-01-29T12:20:57.680Z,46.7
2018-01-29T12:21:59.000Z,46.3
2018-01-29T12:23:00.618Z,46.7
2018-01-29T12:24:01.964Z,46.4
2018-01-29T12:25:03.580Z,46.5
2018-01-29T12:26:04.900Z,46.4
2018-01-29T12:27:06.502Z,46.2
2018-01-29T12:28:08.397Z,46.2
2018-01-29T12:29:09.997Z,46.7
2018-01-29T12:30:11.044Z,46.6
2018-01-29T12:31:12.396Z,46.4
2018-01-29T12:32:14.020Z,46.4
2018-01-29T12:33:15.923Z,46.6
2018-01-29T12:34:17.820Z,46.5
2018-01-29T12:35:19.439Z,46.5
2018-01-29T12:36:21.341Z,46.4
2018-01-29T12:37:22.959Z,46.5
2018-01-29T12:38:24.282Z,46.4
2018-01-29T12:39:25.049Z,46.5
2018-01-29T12:40:26.672Z,46.8
2018-01-29T12:41:28.297Z,46.4
2018-01-29T12:42:29.915Z,46.6
2018-01-29T12:43:31.814Z,46.4
2018-01-29T12:44:33.136Z,46.4
2018-01-29T12:45:34.741Z,46.4
2018-01-29T12:46:36.089Z,46.6
2018-01-29T12:47:37.985Z,46.7
2018-01-29T12:48:39.890Z,46.5
2018-01-29T12:49:41.786Z,46.3
2018-01-29T12:50:43.457Z,46.3
2018-01-29T12:51:44.780Z,46.4
2018-01-29T12:52:46.397Z,46.3
2018-01-29T12:53:48.022Z,46.4
2018-01-29T12:54:49.063Z,46.4
2018-01-29T12:55:50.409Z,46.6
2018-01-29T12:56:52.004Z,46.5
2018-01-29T12:57:53.626Z,46.7
2018-01-29T12:58:55.220Z,46.3
2018-01-29T12:59:57.150Z,46.3
2018-01-29T13:00:58.762Z,46.3
2018-01-29T13:02:00.387Z,46.7
2018-01-29T13:03:02.004Z,46.5
2018-01-29T13:04:03.344Z,46.3
2018-01-29T13:05:04.965Z,46.5
2018-01-29T13:06:06.408Z,46.7
2018-01-29T13:07:08.024Z,46.3
2018-01-29T13:08:09.654Z,46.7
2018-01-29T13:09:11.265Z,46.3
2018-01-29T13:10:12.887Z,46.3
2018-01-29T13:11:14.508Z,46.4
2018-01-29T13:12:15.568Z,46.6
2018-01-29T13:13:17.188Z,46.6
2018-01-29T13:14:18.808Z,46.3
2018-01-29T13:15:20.704Z,46.5
2018-01-29T13:16:22.323Z,46.2
2018-01-29T13:17:23.921Z,46.5
2018-01-29T13:18:25.247Z,46.5
2018-01-29T13:19:26.870Z,46.5
2018-01-29T13:20:28.770Z,46.7
2018-01-29T13:21:29.808Z,46.5
2018-01-29T13:22:30.851Z,46.4
2018-01-29T13:23:32.469Z,46.4
2018-01-29T13:24:33.819Z,46.6
2018-01-29T13:25:34.889Z,46.7
2018-01-29T13:26:36.782Z,46.4
2018-01-29T13:27:38.124Z,46.5
2018-01-29T13:28:39.170Z,46.5
2018-01-29T13:29:40.516Z,46.4
2018-01-29T13:30:41.853Z,46.3
2018-01-29T13:31:43.198Z,46.3
2018-01-29T13:32:44.822Z,46.4
2018-01-29T13:33:46.437Z,46.6
2018-01-29T13:34:47.480Z,46.4
2018-01-29T13:35:48.827Z,46.4
2018-01-29T13:36:50.450Z,46.4
2018-01-29T13:37:52.343Z,46.4
2018-01-29T13:38:53.963Z,46.3
2018-01-29T13:39:55.583Z,46.3
2018-01-29T13:40:57.182Z,46.3
2018-01-29T13:41:57.942Z,46.4
2018-01-29T13:42:59.565Z,46.3
2018-01-29T13:44:01.189Z,46.5
2018-01-29T13:45:03.090Z,46.3
2018-01-29T13:46:04.137Z,46.6
2018-01-29T13:47:05.750Z,46.5
2018-01-29T13:48:06.520Z,46.5
2018-01-29T13:49:07.844Z,46.3
2018-01-29T13:50:09.741Z,46.5